sensor_id;sensor_type;location;lat;lon;timestamp;P1;durP1;ratioP1;P2;durP2;ratioP2
7571;SDS011;3827;49.928;8.548;2023-04-01T00:00:49;3.42;;;1.40;;
7571;SDS011;3827;49.928;8.548;2023-04-01T00:03:17;4.40;;;1.65;;
7571;SDS011;3827;49.928;8.548;2023-04-01T00:05:44;3.70;;;1.60;;
7571;SDS011;3827;49.928;8.548;2023-04-01T00:08:11;4.85;;;1.50;;
7571;SDS011;3827;49.928;8.548;2023-04-01T00:10:38;4.07;;;1.40;;
7571;SDS011;3827;49.928;8.548;2023-04-01T00:13:05;4.72;;;1.50;;
7571;SDS011;3827;49.928;8.548;2023-04-01T00:15:34;3.38;;;1.33;;
7571;SDS011;3827;49.928;8.548;2023-04-01T00:18:01;6.10;;;1.88;;
7571;SDS011;3827;49.928;8.548;2023-04-01T00:20:28;3.92;;;1.45;;
7571;SDS011;3827;49.928;8.548;2023-04-01T00:22:55;3.92;;;1.45;;
7571;SDS011;3827;49.928;8.548;2023-04-01T00:25:22;4.03;;;1.42;;
7571;SDS011;3827;49.928;8.548;2023-04-01T00:27:49;4.07;;;1.55;;
7571;SDS011;3827;49.928;8.548;2023-04-01T00:30:17;3.43;;;1.37;;
7571;SDS011;3827;49.928;8.548;2023-04-01T00:32:45;3.95;;;1.20;;
7571;SDS011;3827;49.928;8.548;2023-04-01T00:35:12;4.22;;;1.25;;
7571;SDS011;3827;49.928;8.548;2023-04-01T00:37:39;3.72;;;1.10;;
7571;SDS011;3827;49.928;8.548;2023-04-01T00:40:06;4.27;;;1.40;;
7571;SDS011;3827;49.928;8.548;2023-04-01T00:42:43;2.83;;;1.20;;
7571;SDS011;3827;49.928;8.548;2023-04-01T00:45:27;4.18;;;1.50;;
7571;SDS011;3827;49.928;8.548;2023-04-01T00:47:58;4.35;;;1.40;;
7571;SDS011;3827;49.928;8.548;2023-04-01T00:50:28;2.72;;;1.05;;
7571;SDS011;3827;49.928;8.548;2023-04-01T00:52:56;3.53;;;1.38;;
7571;SDS011;3827;49.928;8.548;2023-04-01T00:55:25;2.95;;;1.13;;
7571;SDS011;3827;49.928;8.548;2023-04-01T00:57:53;3.92;;;1.35;;
7571;SDS011;3827;49.928;8.548;2023-04-01T01:00:22;3.58;;;1.50;;
7571;SDS011;3827;49.928;8.548;2023-04-01T01:02:51;3.22;;;1.40;;
7571;SDS011;3827;49.928;8.548;2023-04-01T01:05:20;3.20;;;1.27;;
7571;SDS011;3827;49.928;8.548;2023-04-01T01:07:55;3.88;;;1.27;;
7571;SDS011;3827;49.928;8.548;2023-04-01T01:10:30;3.03;;;1.20;;
7571;SDS011;3827;49.928;8.548;2023-04-01T01:13:01;3.33;;;1.33;;
7571;SDS011;3827;49.928;8.548;2023-04-01T01:15:35;2.77;;;1.10;;
7571;SDS011;3827;49.928;8.548;2023-04-01T01:18:09;3.38;;;1.33;;
7571;SDS011;3827;49.928;8.548;2023-04-01T01:20:52;4.63;;;1.47;;
7571;SDS011;3827;49.928;8.548;2023-04-01T01:23:52;3.50;;;1.50;;
7571;SDS011;3827;49.928;8.548;2023-04-01T01:26:46;2.90;;;1.23;;
7571;SDS011;3827;49.928;8.548;2023-04-01T01:29:28;2.92;;;1.30;;
7571;SDS011;3827;49.928;8.548;2023-04-01T01:32:19;2.78;;;1.23;;
7571;SDS011;3827;49.928;8.548;2023-04-01T01:35:14;2.78;;;1.02;;
7571;SDS011;3827;49.928;8.548;2023-04-01T01:37:46;4.43;;;1.20;;
7571;SDS011;3827;49.928;8.548;2023-04-01T01:40:17;3.20;;;1.10;;
7571;SDS011;3827;49.928;8.548;2023-04-01T01:42:46;3.70;;;1.20;;
7571;SDS011;3827;49.928;8.548;2023-04-01T01:45:18;4.93;;;1.50;;
7571;SDS011;3827;49.928;8.548;2023-04-01T01:47:47;3.38;;;1.30;;
7571;SDS011;3827;49.928;8.548;2023-04-01T01:50:17;4.10;;;1.48;;
7571;SDS011;3827;49.928;8.548;2023-04-01T01:52:47;3.05;;;1.10;;
7571;SDS011;3827;49.928;8.548;2023-04-01T01:55:24;3.15;;;1.20;;
7571;SDS011;3827;49.928;8.548;2023-04-01T01:57:54;2.70;;;1.20;;
7571;SDS011;3827;49.928;8.548;2023-04-01T02:00:23;3.28;;;1.20;;
7571;SDS011;3827;49.928;8.548;2023-04-01T02:02:51;2.97;;;1.20;;
7571;SDS011;3827;49.928;8.548;2023-04-01T02:05:21;4.38;;;1.30;;
7571;SDS011;3827;49.928;8.548;2023-04-01T02:07:52;2.95;;;1.20;;
7571;SDS011;3827;49.928;8.548;2023-04-01T02:10:25;4.28;;;1.25;;
7571;SDS011;3827;49.928;8.548;2023-04-01T02:12:56;3.13;;;1.10;;
7571;SDS011;3827;49.928;8.548;2023-04-01T02:15:27;3.25;;;1.30;;
7571;SDS011;3827;49.928;8.548;2023-04-01T02:17:58;2.67;;;1.13;;
7571;SDS011;3827;49.928;8.548;2023-04-01T02:20:27;4.00;;;1.40;;
7571;SDS011;3827;49.928;8.548;2023-04-01T02:22:56;3.13;;;1.20;;
7571;SDS011;3827;49.928;8.548;2023-04-01T02:25:25;4.03;;;1.20;;
7571;SDS011;3827;49.928;8.548;2023-04-01T02:27:53;3.33;;;1.40;;
7571;SDS011;3827;49.928;8.548;2023-04-01T02:30:22;3.40;;;1.30;;
7571;SDS011;3827;49.928;8.548;2023-04-01T02:32:51;2.97;;;1.45;;
7571;SDS011;3827;49.928;8.548;2023-04-01T02:35:19;2.90;;;1.00;;
7571;SDS011;3827;49.928;8.548;2023-04-01T02:37:48;2.97;;;1.23;;
7571;SDS011;3827;49.928;8.548;2023-04-01T02:40:16;3.05;;;1.00;;
7571;SDS011;3827;49.928;8.548;2023-04-01T02:42:44;4.00;;;1.30;;
7571;SDS011;3827;49.928;8.548;2023-04-01T02:45:11;4.25;;;1.38;;
7571;SDS011;3827;49.928;8.548;2023-04-01T02:47:39;2.97;;;1.23;;
7571;SDS011;3827;49.928;8.548;2023-04-01T02:50:06;3.42;;;1.10;;
7571;SDS011;3827;49.928;8.548;2023-04-01T02:52:34;3.22;;;1.50;;
7571;SDS011;3827;49.928;8.548;2023-04-01T02:55:02;3.42;;;1.33;;
7571;SDS011;3827;49.928;8.548;2023-04-01T02:57:30;3.50;;;1.35;;
7571;SDS011;3827;49.928;8.548;2023-04-01T02:59:57;4.15;;;1.60;;
7571;SDS011;3827;49.928;8.548;2023-04-01T03:02:23;3.28;;;1.27;;
7571;SDS011;3827;49.928;8.548;2023-04-01T03:04:50;3.00;;;1.10;;
7571;SDS011;3827;49.928;8.548;2023-04-01T03:07:17;3.77;;;1.37;;
7571;SDS011;3827;49.928;8.548;2023-04-01T03:09:44;4.25;;;1.60;;
7571;SDS011;3827;49.928;8.548;2023-04-01T03:12:12;3.55;;;1.50;;
7571;SDS011;3827;49.928;8.548;2023-04-01T03:14:39;3.10;;;1.13;;
7571;SDS011;3827;49.928;8.548;2023-04-01T03:17:06;3.85;;;1.30;;
7571;SDS011;3827;49.928;8.548;2023-04-01T03:19:33;4.60;;;1.38;;
7571;SDS011;3827;49.928;8.548;2023-04-01T03:21:59;3.10;;;1.38;;
7571;SDS011;3827;49.928;8.548;2023-04-01T03:24:26;3.77;;;1.43;;
7571;SDS011;3827;49.928;8.548;2023-04-01T03:26:53;2.33;;;1.30;;
7571;SDS011;3827;49.928;8.548;2023-04-01T03:29:21;4.05;;;1.40;;
7571;SDS011;3827;49.928;8.548;2023-04-01T03:31:48;3.50;;;1.20;;
7571;SDS011;3827;49.928;8.548;2023-04-01T03:34:15;4.68;;;1.50;;
7571;SDS011;3827;49.928;8.548;2023-04-01T03:36:41;2.83;;;1.20;;
7571;SDS011;3827;49.928;8.548;2023-04-01T03:39:08;3.20;;;1.33;;
7571;SDS011;3827;49.928;8.548;2023-04-01T03:41:35;2.80;;;1.25;;
7571;SDS011;3827;49.928;8.548;2023-04-01T03:44:03;3.75;;;1.48;;
7571;SDS011;3827;49.928;8.548;2023-04-01T03:46:31;5.07;;;1.60;;
7571;SDS011;3827;49.928;8.548;2023-04-01T03:48:58;4.00;;;1.25;;
7571;SDS011;3827;49.928;8.548;2023-04-01T03:51:25;4.72;;;1.55;;
7571;SDS011;3827;49.928;8.548;2023-04-01T03:53:51;3.47;;;1.50;;
7571;SDS011;3827;49.928;8.548;2023-04-01T03:56:18;2.30;;;1.08;;
7571;SDS011;3827;49.928;8.548;2023-04-01T03:58:45;2.30;;;1.13;;
7571;SDS011;3827;49.928;8.548;2023-04-01T04:01:16;3.35;;;1.20;;
7571;SDS011;3827;49.928;8.548;2023-04-01T04:03:47;2.97;;;1.38;;
7571;SDS011;3827;49.928;8.548;2023-04-01T04:06:15;3.08;;;1.25;;
7571;SDS011;3827;49.928;8.548;2023-04-01T04:08:43;3.10;;;1.40;;
7571;SDS011;3827;49.928;8.548;2023-04-01T04:11:10;3.00;;;1.10;;
7571;SDS011;3827;49.928;8.548;2023-04-01T04:13:37;3.50;;;1.20;;
7571;SDS011;3827;49.928;8.548;2023-04-01T04:16:04;3.03;;;1.20;;
7571;SDS011;3827;49.928;8.548;2023-04-01T04:18:32;3.88;;;1.17;;
7571;SDS011;3827;49.928;8.548;2023-04-01T04:21:00;2.45;;;1.20;;
7571;SDS011;3827;49.928;8.548;2023-04-01T04:23:27;3.17;;;1.52;;
7571;SDS011;3827;49.928;8.548;2023-04-01T04:25:55;3.67;;;1.30;;
7571;SDS011;3827;49.928;8.548;2023-04-01T04:28:23;3.95;;;1.20;;
7571;SDS011;3827;49.928;8.548;2023-04-01T04:30:51;1.98;;;1.00;;
7571;SDS011;3827;49.928;8.548;2023-04-01T04:33:18;2.40;;;1.23;;
7571;SDS011;3827;49.928;8.548;2023-04-01T04:35:45;3.57;;;1.23;;
7571;SDS011;3827;49.928;8.548;2023-04-01T04:38:13;4.80;;;1.50;;
7571;SDS011;3827;49.928;8.548;2023-04-01T04:40:41;3.28;;;1.50;;
7571;SDS011;3827;49.928;8.548;2023-04-01T04:43:09;4.55;;;1.35;;
7571;SDS011;3827;49.928;8.548;2023-04-01T04:45:37;4.13;;;1.30;;
7571;SDS011;3827;49.928;8.548;2023-04-01T04:48:03;3.28;;;1.15;;
7571;SDS011;3827;49.928;8.548;2023-04-01T04:50:30;3.95;;;1.30;;
7571;SDS011;3827;49.928;8.548;2023-04-01T04:52:57;3.60;;;1.50;;
7571;SDS011;3827;49.928;8.548;2023-04-01T04:55:25;2.80;;;1.13;;
7571;SDS011;3827;49.928;8.548;2023-04-01T04:57:52;3.60;;;1.17;;
7571;SDS011;3827;49.928;8.548;2023-04-01T05:00:19;3.80;;;1.30;;
7571;SDS011;3827;49.928;8.548;2023-04-01T05:02:46;4.20;;;1.40;;
7571;SDS011;3827;49.928;8.548;2023-04-01T05:05:13;4.00;;;1.30;;
7571;SDS011;3827;49.928;8.548;2023-04-01T05:07:40;3.55;;;1.40;;
7571;SDS011;3827;49.928;8.548;2023-04-01T05:10:07;3.47;;;1.27;;
7571;SDS011;3827;49.928;8.548;2023-04-01T05:12:36;3.03;;;1.10;;
7571;SDS011;3827;49.928;8.548;2023-04-01T05:15:04;2.55;;;0.93;;
7571;SDS011;3827;49.928;8.548;2023-04-01T05:17:31;3.67;;;1.40;;
7571;SDS011;3827;49.928;8.548;2023-04-01T05:19:58;2.77;;;1.17;;
7571;SDS011;3827;49.928;8.548;2023-04-01T05:22:25;4.15;;;1.35;;
7571;SDS011;3827;49.928;8.548;2023-04-01T05:24:52;2.55;;;1.00;;
7571;SDS011;3827;49.928;8.548;2023-04-01T05:27:19;3.95;;;1.25;;
7571;SDS011;3827;49.928;8.548;2023-04-01T05:29:47;2.78;;;1.17;;
7571;SDS011;3827;49.928;8.548;2023-04-01T05:32:14;3.95;;;1.20;;
7571;SDS011;3827;49.928;8.548;2023-04-01T05:34:41;2.95;;;1.20;;
7571;SDS011;3827;49.928;8.548;2023-04-01T05:37:08;2.63;;;1.13;;
7571;SDS011;3827;49.928;8.548;2023-04-01T05:39:35;2.58;;;1.20;;
7571;SDS011;3827;49.928;8.548;2023-04-01T05:42:04;3.30;;;1.20;;
7571;SDS011;3827;49.928;8.548;2023-04-01T05:44:32;2.78;;;1.10;;
7571;SDS011;3827;49.928;8.548;2023-04-01T05:47:00;2.25;;;1.10;;
7571;SDS011;3827;49.928;8.548;2023-04-01T05:49:27;2.53;;;1.00;;
7571;SDS011;3827;49.928;8.548;2023-04-01T05:51:54;1.80;;;1.00;;
7571;SDS011;3827;49.928;8.548;2023-04-01T05:54:20;2.80;;;1.52;;
7571;SDS011;3827;49.928;8.548;2023-04-01T05:56:48;1.90;;;1.00;;
7571;SDS011;3827;49.928;8.548;2023-04-01T05:59:14;2.58;;;1.30;;
7571;SDS011;3827;49.928;8.548;2023-04-01T06:01:41;3.00;;;1.43;;
7571;SDS011;3827;49.928;8.548;2023-04-01T06:04:11;3.22;;;1.48;;
7571;SDS011;3827;49.928;8.548;2023-04-01T06:06:42;2.28;;;0.93;;
7571;SDS011;3827;49.928;8.548;2023-04-01T06:09:12;2.70;;;1.23;;
7571;SDS011;3827;49.928;8.548;2023-04-01T06:11:44;3.92;;;1.30;;
7571;SDS011;3827;49.928;8.548;2023-04-01T06:14:24;2.83;;;1.05;;
7571;SDS011;3827;49.928;8.548;2023-04-01T06:17:03;2.13;;;0.93;;
7571;SDS011;3827;49.928;8.548;2023-04-01T06:19:44;3.47;;;1.33;;
7571;SDS011;3827;49.928;8.548;2023-04-01T06:28:15;2.58;;;1.90;;
7571;SDS011;3827;49.928;8.548;2023-04-01T06:31:03;2.13;;;1.10;;
7571;SDS011;3827;49.928;8.548;2023-04-01T06:36:39;2.58;;;1.00;;
7571;SDS011;3827;49.928;8.548;2023-04-01T06:39:20;1.73;;;0.90;;
7571;SDS011;3827;49.928;8.548;2023-04-01T06:42:06;1.67;;;0.70;;
7571;SDS011;3827;49.928;8.548;2023-04-01T06:44:53;1.50;;;0.90;;
7571;SDS011;3827;49.928;8.548;2023-04-01T06:47:36;1.98;;;0.90;;
7571;SDS011;3827;49.928;8.548;2023-04-01T06:50:11;3.45;;;1.23;;
7571;SDS011;3827;49.928;8.548;2023-04-01T06:52:50;2.13;;;0.80;;
7571;SDS011;3827;49.928;8.548;2023-04-01T06:55:26;2.28;;;0.90;;
7571;SDS011;3827;49.928;8.548;2023-04-01T06:57:58;2.58;;;1.20;;
7571;SDS011;3827;49.928;8.548;2023-04-01T07:00:30;1.95;;;0.95;;
7571;SDS011;3827;49.928;8.548;2023-04-01T07:03:01;2.22;;;0.90;;
7571;SDS011;3827;49.928;8.548;2023-04-01T07:05:36;2.47;;;1.40;;
7571;SDS011;3827;49.928;8.548;2023-04-01T07:08:05;1.80;;;1.10;;
7571;SDS011;3827;49.928;8.548;2023-04-01T07:10:39;2.30;;;1.00;;
7571;SDS011;3827;49.928;8.548;2023-04-01T07:13:12;3.47;;;1.03;;
7571;SDS011;3827;49.928;8.548;2023-04-01T07:15:43;1.95;;;0.80;;
7571;SDS011;3827;49.928;8.548;2023-04-01T07:18:22;1.63;;;0.70;;
7571;SDS011;3827;49.928;8.548;2023-04-01T07:20:54;2.35;;;0.80;;
7571;SDS011;3827;49.928;8.548;2023-04-01T07:23:24;1.85;;;0.95;;
7571;SDS011;3827;49.928;8.548;2023-04-01T07:25:55;1.75;;;0.60;;
7571;SDS011;3827;49.928;8.548;2023-04-01T07:28:26;2.70;;;0.90;;
7571;SDS011;3827;49.928;8.548;2023-04-01T07:31:00;3.15;;;1.00;;
7571;SDS011;3827;49.928;8.548;2023-04-01T07:33:35;2.97;;;0.90;;
7571;SDS011;3827;49.928;8.548;2023-04-01T07:36:13;2.35;;;1.10;;
7571;SDS011;3827;49.928;8.548;2023-04-01T07:38:50;3.35;;;0.93;;
7571;SDS011;3827;49.928;8.548;2023-04-01T07:41:29;1.57;;;0.90;;
7571;SDS011;3827;49.928;8.548;2023-04-01T07:44:06;2.55;;;1.02;;
7571;SDS011;3827;49.928;8.548;2023-04-01T07:46:53;2.40;;;0.80;;
7571;SDS011;3827;49.928;8.548;2023-04-01T07:49:29;2.20;;;0.90;;
7571;SDS011;3827;49.928;8.548;2023-04-01T07:52:05;1.58;;;0.73;;
7571;SDS011;3827;49.928;8.548;2023-04-01T07:54:42;1.50;;;0.70;;
7571;SDS011;3827;49.928;8.548;2023-04-01T07:57:15;1.67;;;0.90;;
7571;SDS011;3827;49.928;8.548;2023-04-01T07:59:47;1.67;;;0.70;;
7571;SDS011;3827;49.928;8.548;2023-04-01T08:02:26;1.02;;;0.50;;
7571;SDS011;3827;49.928;8.548;2023-04-01T08:05:01;1.00;;;0.70;;
7571;SDS011;3827;49.928;8.548;2023-04-01T08:07:40;0.90;;;0.70;;
7571;SDS011;3827;49.928;8.548;2023-04-01T08:10:16;1.65;;;0.60;;
7571;SDS011;3827;49.928;8.548;2023-04-01T08:12:48;1.27;;;0.60;;
7571;SDS011;3827;49.928;8.548;2023-04-01T08:15:27;0.80;;;0.52;;
7571;SDS011;3827;49.928;8.548;2023-04-01T08:18:02;1.23;;;0.60;;
7571;SDS011;3827;49.928;8.548;2023-04-01T08:20:37;1.38;;;0.60;;
7571;SDS011;3827;49.928;8.548;2023-04-01T08:23:10;0.75;;;0.50;;
7571;SDS011;3827;49.928;8.548;2023-04-01T08:25:42;1.90;;;0.80;;
7571;SDS011;3827;49.928;8.548;2023-04-01T08:28:15;0.80;;;0.60;;
7571;SDS011;3827;49.928;8.548;2023-04-01T08:30:48;1.17;;;0.63;;
7571;SDS011;3827;49.928;8.548;2023-04-01T08:33:21;1.30;;;0.65;;
7571;SDS011;3827;49.928;8.548;2023-04-01T08:35:53;1.63;;;1.10;;
7571;SDS011;3827;49.928;8.548;2023-04-01T08:38:27;0.93;;;0.75;;
7571;SDS011;3827;49.928;8.548;2023-04-01T08:41:02;0.52;;;0.52;;
7571;SDS011;3827;49.928;8.548;2023-04-01T08:43:46;1.52;;;0.70;;
7571;SDS011;3827;49.928;8.548;2023-04-01T08:49:42;0.60;;;0.50;;
7571;SDS011;3827;49.928;8.548;2023-04-01T08:52:36;2.37;;;1.43;;
7571;SDS011;3827;49.928;8.548;2023-04-01T08:55:20;1.33;;;0.85;;
7571;SDS011;3827;49.928;8.548;2023-04-01T08:57:56;0.50;;;0.50;;
7571;SDS011;3827;49.928;8.548;2023-04-01T09:00:38;1.13;;;0.70;;
7571;SDS011;3827;49.928;8.548;2023-04-01T09:03:28;0.57;;;0.50;;
7571;SDS011;3827;49.928;8.548;2023-04-01T09:15:18;0.55;;;0.50;;
7571;SDS011;3827;49.928;8.548;2023-04-01T09:18:08;0.40;;;0.40;;
7571;SDS011;3827;49.928;8.548;2023-04-01T09:20:58;0.90;;;0.43;;
7571;SDS011;3827;49.928;8.548;2023-04-01T09:24:08;1.50;;;0.60;;
7571;SDS011;3827;49.928;8.548;2023-04-01T09:27:02;1.58;;;0.70;;
7571;SDS011;3827;49.928;8.548;2023-04-01T09:29:39;0.45;;;0.30;;
7571;SDS011;3827;49.928;8.548;2023-04-01T09:32:34;2.15;;;0.43;;
7571;SDS011;3827;49.928;8.548;2023-04-01T09:35:28;0.50;;;0.50;;
7571;SDS011;3827;49.928;8.548;2023-04-01T09:38:08;6.68;;;1.15;;
7571;SDS011;3827;49.928;8.548;2023-04-01T09:40:47;3.00;;;1.10;;
7571;SDS011;3827;49.928;8.548;2023-04-01T09:43:22;0.80;;;0.30;;
7571;SDS011;3827;49.928;8.548;2023-04-01T09:46:06;0.85;;;0.47;;
7571;SDS011;3827;49.928;8.548;2023-04-01T09:48:44;0.77;;;0.40;;
7571;SDS011;3827;49.928;8.548;2023-04-01T09:51:23;0.80;;;0.47;;
7571;SDS011;3827;49.928;8.548;2023-04-01T09:54:01;0.85;;;0.60;;
7571;SDS011;3827;49.928;8.548;2023-04-01T10:08:43;0.38;;;0.38;;
7571;SDS011;3827;49.928;8.548;2023-04-01T10:14:46;0.80;;;0.40;;
7571;SDS011;3827;49.928;8.548;2023-04-01T10:21:01;0.90;;;0.50;;
7571;SDS011;3827;49.928;8.548;2023-04-01T10:27:05;0.77;;;0.77;;
7571;SDS011;3827;49.928;8.548;2023-04-01T10:29:59;0.53;;;0.37;;
7571;SDS011;3827;49.928;8.548;2023-04-01T10:35:56;0.40;;;0.40;;
7571;SDS011;3827;49.928;8.548;2023-04-01T10:39:06;0.80;;;0.40;;
7571;SDS011;3827;49.928;8.548;2023-04-01T10:42:00;0.52;;;0.40;;
7571;SDS011;3827;49.928;8.548;2023-04-01T10:47:54;0.40;;;0.40;;
7571;SDS011;3827;49.928;8.548;2023-04-01T10:50:51;0.30;;;0.30;;
7571;SDS011;3827;49.928;8.548;2023-04-01T10:56:45;0.47;;;0.40;;
7571;SDS011;3827;49.928;8.548;2023-04-01T11:02:36;0.35;;;0.35;;
7571;SDS011;3827;49.928;8.548;2023-04-01T11:05:42;0.35;;;0.30;;
7571;SDS011;3827;49.928;8.548;2023-04-01T11:24:26;0.30;;;0.30;;
7571;SDS011;3827;49.928;8.548;2023-04-01T11:27:08;0.88;;;0.30;;
7571;SDS011;3827;49.928;8.548;2023-04-01T11:29:51;0.20;;;0.20;;
7571;SDS011;3827;49.928;8.548;2023-04-01T11:32:31;0.50;;;0.30;;
7571;SDS011;3827;49.928;8.548;2023-04-01T11:38:22;0.30;;;0.30;;
7571;SDS011;3827;49.928;8.548;2023-04-01T11:41:07;0.20;;;0.20;;
7571;SDS011;3827;49.928;8.548;2023-04-01T11:43:49;0.40;;;0.30;;
7571;SDS011;3827;49.928;8.548;2023-04-01T11:46:30;0.20;;;0.20;;
7571;SDS011;3827;49.928;8.548;2023-04-01T11:49:07;0.35;;;0.30;;
7571;SDS011;3827;49.928;8.548;2023-04-01T11:51:53;0.35;;;0.30;;
7571;SDS011;3827;49.928;8.548;2023-04-01T11:54:41;0.40;;;0.30;;
7571;SDS011;3827;49.928;8.548;2023-04-01T12:00:22;0.30;;;0.30;;
7571;SDS011;3827;49.928;8.548;2023-04-01T12:03:08;0.30;;;0.30;;
7571;SDS011;3827;49.928;8.548;2023-04-01T12:05:47;0.80;;;0.40;;
7571;SDS011;3827;49.928;8.548;2023-04-01T12:08:23;0.70;;;0.40;;
7571;SDS011;3827;49.928;8.548;2023-04-01T12:11:03;0.50;;;0.40;;
7571;SDS011;3827;49.928;8.548;2023-04-01T12:13:42;0.40;;;0.40;;
7571;SDS011;3827;49.928;8.548;2023-04-01T12:16:24;0.63;;;0.55;;
7571;SDS011;3827;49.928;8.548;2023-04-01T12:19:04;0.40;;;0.40;;
7571;SDS011;3827;49.928;8.548;2023-04-01T12:21:42;0.30;;;0.30;;
7571;SDS011;3827;49.928;8.548;2023-04-01T12:24:22;0.90;;;0.47;;
7571;SDS011;3827;49.928;8.548;2023-04-01T12:27:10;1.10;;;0.30;;
7571;SDS011;3827;49.928;8.548;2023-04-01T12:29:53;1.20;;;0.50;;
7571;SDS011;3827;49.928;8.548;2023-04-01T12:32:34;1.00;;;0.90;;
7571;SDS011;3827;49.928;8.548;2023-04-01T12:35:17;1.60;;;0.80;;
7571;SDS011;3827;49.928;8.548;2023-04-01T12:38:09;0.50;;;0.50;;
7571;SDS011;3827;49.928;8.548;2023-04-01T12:40:56;0.93;;;0.55;;
7571;SDS011;3827;49.928;8.548;2023-04-01T12:46:32;0.43;;;0.35;;
7571;SDS011;3827;49.928;8.548;2023-04-01T12:49:23;0.40;;;0.30;;
7571;SDS011;3827;49.928;8.548;2023-04-01T12:52:00;0.25;;;0.25;;
7571;SDS011;3827;49.928;8.548;2023-04-01T12:57:46;1.60;;;0.73;;
7571;SDS011;3827;49.928;8.548;2023-04-01T13:00:32;0.70;;;0.50;;
7571;SDS011;3827;49.928;8.548;2023-04-01T13:03:23;0.60;;;0.30;;
7571;SDS011;3827;49.928;8.548;2023-04-01T13:09:13;0.70;;;0.53;;
7571;SDS011;3827;49.928;8.548;2023-04-01T13:11:53;1.08;;;0.77;;
7571;SDS011;3827;49.928;8.548;2023-04-01T13:14:50;0.30;;;0.30;;
7571;SDS011;3827;49.928;8.548;2023-04-01T13:17:33;1.08;;;0.40;;
7571;SDS011;3827;49.928;8.548;2023-04-01T13:20:06;0.63;;;0.40;;
7571;SDS011;3827;49.928;8.548;2023-04-01T13:22:46;0.90;;;0.20;;
7571;SDS011;3827;49.928;8.548;2023-04-01T13:25:24;0.40;;;0.30;;
7571;SDS011;3827;49.928;8.548;2023-04-01T13:27:57;0.50;;;0.40;;
7571;SDS011;3827;49.928;8.548;2023-04-01T13:30:30;0.40;;;0.40;;
7571;SDS011;3827;49.928;8.548;2023-04-01T13:33:10;0.60;;;0.40;;
7571;SDS011;3827;49.928;8.548;2023-04-01T13:35:43;0.68;;;0.40;;
7571;SDS011;3827;49.928;8.548;2023-04-01T13:38:27;0.77;;;0.50;;
7571;SDS011;3827;49.928;8.548;2023-04-01T13:41:14;1.30;;;0.40;;
7571;SDS011;3827;49.928;8.548;2023-04-01T13:43:51;0.70;;;0.40;;
7571;SDS011;3827;49.928;8.548;2023-04-01T13:46:54;0.38;;;0.30;;
7571;SDS011;3827;49.928;8.548;2023-04-01T13:52:58;0.32;;;0.30;;
7571;SDS011;3827;49.928;8.548;2023-04-01T13:55:53;0.30;;;0.30;;
7571;SDS011;3827;49.928;8.548;2023-04-01T13:58:30;0.77;;;0.40;;
7571;SDS011;3827;49.928;8.548;2023-04-01T14:01:15;0.47;;;0.30;;
7571;SDS011;3827;49.928;8.548;2023-04-01T14:03:59;0.45;;;0.40;;
7571;SDS011;3827;49.928;8.548;2023-04-01T14:06:51;0.40;;;0.40;;
7571;SDS011;3827;49.928;8.548;2023-04-01T14:09:35;0.50;;;0.30;;
7571;SDS011;3827;49.928;8.548;2023-04-01T14:12:15;0.35;;;0.35;;
7571;SDS011;3827;49.928;8.548;2023-04-01T14:14:58;0.30;;;0.20;;
7571;SDS011;3827;49.928;8.548;2023-04-01T14:17:54;0.47;;;0.30;;
7571;SDS011;3827;49.928;8.548;2023-04-01T14:20:38;0.38;;;0.30;;
7571;SDS011;3827;49.928;8.548;2023-04-01T14:23:17;0.50;;;0.20;;
7571;SDS011;3827;49.928;8.548;2023-04-01T14:28:56;0.30;;;0.30;;
7571;SDS011;3827;49.928;8.548;2023-04-01T14:31:47;0.43;;;0.43;;
7571;SDS011;3827;49.928;8.548;2023-04-01T14:34:24;0.30;;;0.30;;
7571;SDS011;3827;49.928;8.548;2023-04-01T14:37:03;0.40;;;0.30;;
7571;SDS011;3827;49.928;8.548;2023-04-01T14:42:58;0.20;;;0.20;;
7571;SDS011;3827;49.928;8.548;2023-04-01T14:48:25;0.20;;;0.20;;
7571;SDS011;3827;49.928;8.548;2023-04-01T14:51:02;0.17;;;0.17;;
7571;SDS011;3827;49.928;8.548;2023-04-01T14:53:36;0.40;;;0.38;;
7571;SDS011;3827;49.928;8.548;2023-04-01T14:56:08;0.20;;;0.20;;
7571;SDS011;3827;49.928;8.548;2023-04-01T14:58:42;0.50;;;0.50;;
7571;SDS011;3827;49.928;8.548;2023-04-01T15:01:13;0.60;;;0.60;;
7571;SDS011;3827;49.928;8.548;2023-04-01T15:03:53;1.60;;;0.60;;
7571;SDS011;3827;49.928;8.548;2023-04-01T15:06:45;0.25;;;0.20;;
7571;SDS011;3827;49.928;8.548;2023-04-01T15:09:29;0.50;;;0.50;;
7571;SDS011;3827;49.928;8.548;2023-04-01T15:12:11;0.50;;;0.50;;
7571;SDS011;3827;49.928;8.548;2023-04-01T15:14:53;0.50;;;0.50;;
7571;SDS011;3827;49.928;8.548;2023-04-01T15:17:38;0.50;;;0.50;;
7571;SDS011;3827;49.928;8.548;2023-04-01T15:20:15;0.52;;;0.50;;
7571;SDS011;3827;49.928;8.548;2023-04-01T15:22:54;1.90;;;1.10;;
7571;SDS011;3827;49.928;8.548;2023-04-01T15:25:35;0.95;;;0.82;;
7571;SDS011;3827;49.928;8.548;2023-04-01T15:28:15;3.60;;;2.13;;
7571;SDS011;3827;49.928;8.548;2023-04-01T15:30:52;0.70;;;0.70;;
7571;SDS011;3827;49.928;8.548;2023-04-01T15:33:29;1.33;;;0.50;;
7571;SDS011;3827;49.928;8.548;2023-04-01T15:36:13;0.93;;;0.60;;
7571;SDS011;3827;49.928;8.548;2023-04-01T15:38:51;0.60;;;0.30;;
7571;SDS011;3827;49.928;8.548;2023-04-01T15:41:23;0.40;;;0.40;;
7571;SDS011;3827;49.928;8.548;2023-04-01T15:44:01;0.40;;;0.40;;
7571;SDS011;3827;49.928;8.548;2023-04-01T15:46:41;0.75;;;0.50;;
7571;SDS011;3827;49.928;8.548;2023-04-01T15:49:22;0.40;;;0.30;;
7571;SDS011;3827;49.928;8.548;2023-04-01T15:52:03;0.40;;;0.40;;
7571;SDS011;3827;49.928;8.548;2023-04-01T15:57:32;0.52;;;0.52;;
7571;SDS011;3827;49.928;8.548;2023-04-01T16:00:12;0.67;;;0.57;;
7571;SDS011;3827;49.928;8.548;2023-04-01T16:02:56;1.58;;;1.42;;
7571;SDS011;3827;49.928;8.548;2023-04-01T16:05:42;0.88;;;0.70;;
7571;SDS011;3827;49.928;8.548;2023-04-01T16:11:34;8.38;;;7.22;;
7571;SDS011;3827;49.928;8.548;2023-04-01T16:14:12;1.48;;;1.38;;
7571;SDS011;3827;49.928;8.548;2023-04-01T16:16:56;0.70;;;0.70;;
7571;SDS011;3827;49.928;8.548;2023-04-01T16:19:37;0.60;;;0.50;;
7571;SDS011;3827;49.928;8.548;2023-04-01T16:22:13;0.50;;;0.50;;
7571;SDS011;3827;49.928;8.548;2023-04-01T16:24:46;0.50;;;0.40;;
7571;SDS011;3827;49.928;8.548;2023-04-01T16:27:20;1.05;;;0.60;;
7571;SDS011;3827;49.928;8.548;2023-04-01T16:29:53;0.40;;;0.30;;
7571;SDS011;3827;49.928;8.548;2023-04-01T16:32:34;0.57;;;0.50;;
7571;SDS011;3827;49.928;8.548;2023-04-01T16:35:20;0.88;;;0.47;;
7571;SDS011;3827;49.928;8.548;2023-04-01T16:37:52;0.40;;;0.35;;
7571;SDS011;3827;49.928;8.548;2023-04-01T16:40:25;0.47;;;0.47;;
7571;SDS011;3827;49.928;8.548;2023-04-01T16:43:10;0.50;;;0.30;;
7571;SDS011;3827;49.928;8.548;2023-04-01T16:45:42;0.30;;;0.30;;
7571;SDS011;3827;49.928;8.548;2023-04-01T16:48:17;0.77;;;0.77;;
7571;SDS011;3827;49.928;8.548;2023-04-01T16:50:52;0.30;;;0.30;;
7571;SDS011;3827;49.928;8.548;2023-04-01T16:53:25;0.88;;;0.60;;
7571;SDS011;3827;49.928;8.548;2023-04-01T16:56:07;0.30;;;0.30;;
7571;SDS011;3827;49.928;8.548;2023-04-01T16:58:39;0.52;;;0.45;;
7571;SDS011;3827;49.928;8.548;2023-04-01T17:01:11;1.65;;;1.40;;
7571;SDS011;3827;49.928;8.548;2023-04-01T17:03:43;0.80;;;0.80;;
7571;SDS011;3827;49.928;8.548;2023-04-01T17:06:16;0.80;;;0.60;;
7571;SDS011;3827;49.928;8.548;2023-04-01T17:08:55;0.50;;;0.50;;
7571;SDS011;3827;49.928;8.548;2023-04-01T17:11:31;1.20;;;0.50;;
7571;SDS011;3827;49.928;8.548;2023-04-01T17:14:06;0.70;;;0.60;;
7571;SDS011;3827;49.928;8.548;2023-04-01T17:16:58;0.40;;;0.40;;
7571;SDS011;3827;49.928;8.548;2023-04-01T17:19:52;0.70;;;0.70;;
7571;SDS011;3827;49.928;8.548;2023-04-01T17:22:29;1.00;;;0.80;;
7571;SDS011;3827;49.928;8.548;2023-04-01T17:28:24;0.60;;;0.60;;
7571;SDS011;3827;49.928;8.548;2023-04-01T17:31:01;1.67;;;0.40;;
7571;SDS011;3827;49.928;8.548;2023-04-01T17:36:42;0.70;;;0.52;;
7571;SDS011;3827;49.928;8.548;2023-04-01T17:39:33;0.60;;;0.40;;
7571;SDS011;3827;49.928;8.548;2023-04-01T17:42:11;0.45;;;0.30;;
7571;SDS011;3827;49.928;8.548;2023-04-01T17:44:45;0.32;;;0.32;;
7571;SDS011;3827;49.928;8.548;2023-04-01T17:47:25;0.40;;;0.30;;
7571;SDS011;3827;49.928;8.548;2023-04-01T17:50:02;0.68;;;0.35;;
7571;SDS011;3827;49.928;8.548;2023-04-01T17:52:42;0.80;;;0.30;;
7571;SDS011;3827;49.928;8.548;2023-04-01T17:58:17;0.52;;;0.40;;
7571;SDS011;3827;49.928;8.548;2023-04-01T18:00:57;0.60;;;0.40;;
7571;SDS011;3827;49.928;8.548;2023-04-01T18:06:35;0.40;;;0.40;;